Faison, North Carolina
Current Conditions -  °F | °C
As of 5:15 PM on Wednesday 28 Jan 2015 (Local Time) from KDPL Reporting Station
Clear Clear  
Wind Chill: 39°   Ceiling: Unl
Heat Index: 42°   Visibility: 10mi
Dew Point: 13°   Wind: 5mph
Humidity: 30%   Direction: 330°NNW
Pressure: 30.27"   Gusts: NA
Location:  35.12°N, 78.14°W
Report Text: KDPL 282215Z AUTO 33004KT 10SM CLR 06/M11 A3027 RMK AO2 T00551108
Loading
Personal Weather Stations






























Interactive Weather Map New forecast layout! Learn more

10-Day Weather Forecast

Advertisements
Track Severe Weather on mobile